Time;durP1;ratioP1;P1;durP2;ratioP2;P2;SDS_P1;SDS_P2;PMS_P1;PMS_P2;Temp;Humidity;BMP_temperature;BMP_pressure;BME280_temperature;BME280_humidity;BME280_pressure;Samples;Min_cycle;Max_cycle;Signal;HPM_P1;HPM_P2
2021/12/07 00:00:52;;;;;;;22.92;9.57;;;;;;;-3.43;74.50;99550.69;4972103;28;20056;-66
2021/12/07 00:03:20;;;;;;;20.95;9.80;;;;;;;-3.44;75.48;99552.56;4971909;28;20062;-63
2021/12/07 00:05:48;;;;;;;22.77;8.75;;;;;;;-3.43;75.57;99556.13;4970348;28;20074;-55
2021/12/07 00:08:15;;;;;;;20.17;9.18;;;;;;;-3.43;75.56;99554.22;4955846;28;20070;-62
2021/12/07 00:10:43;;;;;;;25.25;12.55;;;;;;;-3.46;75.33;99552.00;4970427;28;20515;-62
2021/12/07 00:13:10;;;;;;;18.98;8.55;;;;;;;-3.45;75.24;99547.38;4970350;28;20066;-62
2021/12/07 00:15:38;;;;;;;18.85;8.35;;;;;;;-3.48;75.68;99536.97;4970627;28;20050;-62
2021/12/07 00:18:06;;;;;;;22.02;9.90;;;;;;;-3.46;75.72;99545.72;4971607;28;20059;-62
2021/12/07 00:20:33;;;;;;;23.52;9.82;;;;;;;-3.47;75.64;99544.88;4971769;28;20077;-62
2021/12/07 00:23:05;;;;;;;16.88;7.55;;;;;;;-3.46;76.25;99527.53;4970689;28;20057;-61
2021/12/07 00:25:32;;;;;;;17.60;7.82;;;;;;;-3.45;75.56;99534.59;4973535;28;20078;-61
2021/12/07 00:27:59;;;;;;;21.23;11.00;;;;;;;-3.46;75.77;99519.38;4970741;28;20106;-63
2021/12/07 00:30:31;;;;;;;21.23;8.98;;;;;;;-3.46;76.22;99505.78;4972235;28;20105;-62
2021/12/07 00:33:17;;;;;;;21.63;8.52;;;;;;;-3.46;75.92;99522.09;4954700;28;20466;-62
2021/12/07 00:35:44;;;;;;;23.30;10.77;;;;;;;-3.51;76.36;99505.66;4970300;28;20117;-62
2021/12/07 00:38:19;;;;;;;19.52;8.07;;;;;;;-3.49;76.90;99503.53;4969755;28;20510;-62
2021/12/07 00:40:48;;;;;;;19.00;7.93;;;;;;;-3.50;76.79;99504.59;4970392;28;20141;-62
2021/12/07 00:43:16;;;;;;;20.73;8.73;;;;;;;-3.48;77.27;99505.19;4970326;28;20137;-63
2021/12/07 00:45:45;;;;;;;18.17;8.38;;;;;;;-3.49;77.19;99487.22;4970155;28;20145;-62
2021/12/07 00:48:14;;;;;;;15.57;7.57;;;;;;;-3.42;77.13;99492.50;4971372;28;20054;-62
2021/12/07 00:50:45;;;;;;;24.73;9.18;;;;;;;-3.37;77.66;99484.44;4970723;28;20086;-62
2021/12/07 00:53:12;;;;;;;;;;;;;;;-3.38;77.17;99494.47;4971438;28;20057;-62
2021/12/07 00:55:42;;;;;;;21.08;9.65;;;;;;;-3.37;77.66;99484.44;4970971;28;20353;-61
2021/12/07 00:58:20;;;;;;;20.98;8.55;;;;;;;-3.40;77.47;99469.47;4970595;28;20114;-62
2021/12/07 01:00:53;;;;;;;22.52;8.45;;;;;;;-3.35;78.13;99476.88;4971823;28;20109;-57
2021/12/07 01:03:21;;;;;;;16.17;8.50;;;;;;;-3.36;77.62;99470.59;4969965;28;20142;-58
2021/12/07 01:05:52;;;;;;;21.52;8.95;;;;;;;-3.39;77.74;99467.53;4969237;28;20066;-61
2021/12/07 01:08:38;;;;;;;16.40;7.80;;;;;;;-3.41;78.24;99461.53;4969815;28;20137;-62
2021/12/07 01:25:16;;;;;;;19.88;8.90;;;;;;;-3.44;77.75;99465.56;4972136;28;20094;-61
2021/12/07 01:27:45;;;;;;;23.30;9.02;;;;;;;-3.42;77.83;99463.44;4968992;28;20422;-62
2021/12/07 01:30:19;;;;;;;20.48;7.65;;;;;;;-3.43;78.26;99450.06;4955253;28;20058;-62
2021/12/07 01:38:26;;;;;;;20.23;7.72;;;;;;;-3.41;78.60;99435.16;4968744;28;20057;-55
2021/12/07 01:46:21;;;;;;;25.17;10.43;;;;;;;-3.38;78.25;99426.50;4968853;28;20133;-57
2021/12/07 01:52:03;;;;;;;18.58;8.43;;;;;;;-3.33;78.46;99409.47;4970555;28;20077;-58
2021/12/07 02:00:11;;;;;;;20.42;9.00;;;;;;;-3.29;77.66;99406.00;4970841;28;20081;-58
2021/12/07 02:02:40;;;;;;;21.38;9.55;;;;;;;-3.29;77.93;99408.72;4968600;28;20199;-57
2021/12/07 02:05:08;;;;;;;18.80;7.28;;;;;;;-3.26;78.01;99404.69;4971009;28;20450;-58
2021/12/07 02:07:35;;;;;;;21.08;8.85;;;;;;;-3.27;77.51;99384.81;4969074;28;20047;-58
2021/12/07 02:10:10;;;;;;;24.23;9.38;;;;;;;-3.21;77.92;99392.00;4969279;28;20565;-58
2021/12/07 02:12:45;;;;;;;17.77;8.68;;;;;;;-3.20;78.12;99385.47;4968734;28;20129;-52
2021/12/07 02:15:17;;;;;;;22.20;10.02;;;;;;;-3.18;77.64;99394.22;4970974;28;20050;-55
2021/12/07 02:17:44;;;;;;;23.17;10.35;;;;;;;-3.22;77.95;99378.66;4971987;28;20051;-58
2021/12/07 02:20:13;;;;;;;20.00;8.15;;;;;;;-3.24;78.01;99376.19;4974545;28;20518;-57
2021/12/07 02:22:40;;;;;;;15.98;7.65;;;;;;;-3.21;77.92;99383.84;4955425;28;20177;-55
2021/12/07 02:25:10;;;;;;;15.77;6.90;;;;;;;-3.20;78.13;99376.50;4974600;28;20069;-56
2021/12/07 02:27:37;;;;;;;16.52;7.45;;;;;;;-3.20;78.03;99376.50;4955900;28;20080;-54
2021/12/07 02:30:09;;;;;;;23.10;9.25;;;;;;;-3.18;78.11;99372.47;4973985;28;20101;-55
2021/12/07 02:32:38;;;;;;;21.65;8.52;;;;;;;-3.19;77.25;99362.66;4972734;28;20051;-58
2021/12/07 02:35:06;;;;;;;20.65;8.32;;;;;;;-3.15;77.78;99357.53;4974117;28;20057;-53
2021/12/07 02:37:37;;;;;;;23.23;10.38;;;;;;;-3.14;77.53;99367.34;4973386;28;20541;-58
2021/12/07 02:40:07;;;;;;;19.85;6.97;;;;;;;-3.12;77.57;99366.03;4958577;28;20137;-56
2021/12/07 02:42:34;;;;;;;;;;;;;;;-3.15;77.37;99347.50;4973742;28;20051;-57
2021/12/07 02:45:03;;;;;;;17.60;7.97;;;;;;;-3.15;78.16;99350.19;4974533;28;20028;-58
2021/12/07 02:47:34;;;;;;;21.17;9.70;;;;;;;-3.11;78.07;99353.25;4974052;28;20138;-57
2021/12/07 02:50:03;;;;;;;15.10;7.03;;;;;;;-3.10;78.01;99361.19;4973163;28;20105;-57
2021/12/07 02:52:30;;;;;;;14.65;7.60;;;;;;;-3.09;77.70;99351.94;4973749;28;20062;-58
2021/12/07 02:54:57;;;;;;;18.83;9.75;;;;;;;-3.07;77.48;99338.06;4973823;28;20153;-58
2021/12/07 02:57:24;;;;;;;17.63;8.50;;;;;;;-3.09;77.77;99348.38;4973557;28;20573;-58
2021/12/07 03:00:08;;;;;;;18.77;8.27;;;;;;;-3.09;77.95;99330.16;4971655;28;20145;-58
2021/12/07 03:02:42;;;;;;;20.50;8.15;;;;;;;-3.08;78.32;99329.09;4956304;28;20154;-58
2021/12/07 03:27:04;;;;;;;18.15;8.93;;;;;;;-2.98;78.48;99285.72;4972412;28;20058;-56
2021/12/07 03:29:31;;;;;;;21.10;10.10;;;;;;;-2.98;78.72;99276.72;4970933;28;20481;-56
2021/12/07 03:31:58;;;;;;;13.20;6.78;;;;;;;-2.94;78.75;99256.91;4972967;28;20138;-58
2021/12/07 03:34:25;;;;;;;16.30;8.00;;;;;;;-2.91;78.62;99258.31;4972034;28;20046;-58
2021/12/07 03:36:52;;;;;;;15.00;7.30;;;;;;;-2.89;79.08;99265.16;4972298;28;20434;-54
2021/12/07 03:39:19;;;;;;;14.98;6.25;;;;;;;-2.89;78.89;99254.28;4973137;28;20055;-57
2021/12/07 03:41:46;;;;;;;16.58;8.45;;;;;;;-2.92;79.37;99254.78;4972567;28;20055;-56
2021/12/07 03:44:13;;;;;;;15.68;7.05;;;;;;;-2.91;78.91;99248.25;4973032;28;20046;-57
2021/12/07 03:46:40;;;;;;;13.95;7.50;;;;;;;-2.91;79.69;99250.97;4970748;28;20098;-58
2021/12/07 03:49:07;;;;;;;19.77;8.73;;;;;;;-2.90;79.31;99255.31;4973276;28;20050;-57
2021/12/07 03:51:34;;;;;;;19.17;9.68;;;;;;;-2.89;79.80;99240.66;4970635;28;20126;-58
2021/12/07 03:54:02;;;;;;;16.48;7.72;;;;;;;-2.89;79.97;99240.66;4972639;28;20051;-59
2021/12/07 03:56:28;;;;;;;18.27;7.63;;;;;;;-2.88;79.58;99255.06;4970418;28;20499;-58
2021/12/07 03:58:55;;;;;;;15.90;8.68;;;;;;;-2.91;79.09;99234.66;4972498;28;20105;-55
2021/12/07 04:01:23;;;;;;;15.52;7.85;;;;;;;-2.90;79.67;99236.28;4970097;28;20137;-56
2021/12/07 04:03:52;;;;;;;17.90;7.13;;;;;;;-2.88;79.11;99234.13;4972566;28;20058;-56
2021/12/07 04:06:21;;;;;;;13.63;8.30;;;;;;;-2.86;79.71;99220.28;4970674;28;20498;-59
2021/12/07 04:08:49;;;;;;;19.45;7.15;;;;;;;-2.87;79.70;99213.19;4972212;28;20065;-58
2021/12/07 04:11:16;;;;;;;13.02;5.70;;;;;;;-2.82;79.40;99219.50;4970454;28;20051;-58
2021/12/07 04:13:44;;;;;;;12.93;6.22;;;;;;;-2.84;79.03;99245.34;4955433;28;20053;-58
2021/12/07 04:16:13;;;;;;;18.05;9.05;;;;;;;-2.80;78.92;99216.53;4971813;28;20054;-59
2021/12/07 04:18:40;;;;;;;14.55;7.20;;;;;;;-2.79;78.94;99215.44;4973151;28;20051;-57
2021/12/07 04:21:07;;;;;;;21.10;10.02;;;;;;;-2.80;79.25;99209.22;4972571;28;20457;-58
2021/12/07 04:23:35;;;;;;;14.20;6.85;;;;;;;-2.78;79.20;99198.88;4970132;28;20566;-58
2021/12/07 04:26:07;;;;;;;20.05;10.80;;;;;;;-2.74;79.10;99202.75;4971896;28;20204;-59
2021/12/07 04:28:35;;;;;;;13.88;7.97;;;;;;;-2.74;79.14;99196.47;4971997;28;20050;-59
2021/12/07 04:31:03;;;;;;;19.30;7.82;;;;;;;-2.71;79.02;99204.13;4972341;28;20061;-57
2021/12/07 04:33:30;;;;;;;14.50;6.82;;;;;;;-2.73;78.89;99174.44;4970194;28;20065;-58
2021/12/07 04:35:59;;;;;;;17.95;8.15;;;;;;;-2.72;78.70;99178.78;4964454;28;20047;-58
2021/12/07 04:38:26;;;;;;;17.15;9.02;;;;;;;-2.68;79.03;99174.50;4971350;28;20133;-59
2021/12/07 04:40:54;;;;;;;16.23;8.90;;;;;;;-2.67;78.81;99165.25;4970988;28;20050;-58
2021/12/07 04:43:21;;;;;;;16.50;8.75;;;;;;;-2.66;78.50;99171.53;4969332;28;20043;-56
2021/12/07 04:59:10;;;;;;;16.13;8.30;;;;;;;-2.68;78.71;99125.50;4970925;28;20073;-58
2021/12/07 05:01:38;;;;;;;15.68;7.47;;;;;;;-2.62;79.06;99135.38;4970972;28;20067;-58
2021/12/07 05:04:14;;;;;;;16.00;7.65;;;;;;;-2.60;79.23;99124.22;4971642;28;20145;-55
2021/12/07 05:06:48;;;;;;;19.73;9.38;;;;;;;-2.58;78.86;99138.38;4969117;28;20058;-58
2021/12/07 05:12:16;;;;;;;16.75;9.60;;;;;;;-2.60;78.80;99125.00;4969111;28;20055;-61
2021/12/07 05:14:42;;;;;;;16.57;7.27;;;;;;;-2.64;78.99;99120.34;4970537;28;20070;-64
2021/12/07 05:34:38;;;;;;;16.60;7.50;;;;;;;-2.46;78.63;99123.53;4970766;28;20515;-57
2021/12/07 05:39:09;;;;;;;20.67;7.80;;;;;;;-2.42;78.90;99112.94;4970944;28;20050;-56
2021/12/07 05:41:36;;;;;;;16.33;8.23;;;;;;;-2.41;79.16;99109.97;4969072;28;20125;-56
2021/12/07 05:44:03;;;;;;;18.00;7.45;;;;;;;-2.41;79.17;99107.25;4971441;28;20055;-55
2021/12/07 05:46:31;;;;;;;15.90;7.80;;;;;;;-2.36;79.29;99096.41;4969350;28;20050;-58
2021/12/07 05:48:58;;;;;;;12.50;5.95;;;;;;;-2.34;78.77;99099.66;4969638;28;20051;-58
2021/12/07 05:51:24;;;;;;;15.85;7.82;;;;;;;-2.33;78.79;99089.59;4971951;28;20050;-60
2021/12/07 05:53:51;;;;;;;15.05;7.80;;;;;;;-2.36;78.86;99084.66;4973614;28;20145;-58
2021/12/07 05:56:18;;;;;;;15.13;6.40;;;;;;;-2.36;79.23;99080.06;4973928;28;20058;-57
2021/12/07 05:58:45;;;;;;;15.13;8.13;;;;;;;-2.34;79.05;99083.31;4971981;28;20054;-57
2021/12/07 06:01:12;;;;;;;14.60;6.88;;;;;;;-2.36;79.44;99080.06;4973366;28;20055;-59
2021/12/07 06:03:39;;;;;;;17.77;8.48;;;;;;;-2.29;79.15;99085.25;4972292;28;20077;-58
2021/12/07 06:06:12;;;;;;;15.65;7.32;;;;;;;-2.29;79.33;99094.25;4974394;28;20051;-60
2021/12/07 06:08:39;;;;;;;15.25;6.85;;;;;;;-2.28;79.45;99087.72;4971205;28;20097;-58
2021/12/07 06:11:06;;;;;;;14.00;7.25;;;;;;;-2.27;79.34;99094.84;4975078;28;20074;-59
2021/12/07 06:13:33;;;;;;;12.00;5.07;;;;;;;-2.22;79.42;99097.56;4971992;28;20082;-55
2021/12/07 06:16:06;;;;;;;16.83;8.68;;;;;;;-2.22;79.37;99086.69;4973992;28;20058;-58
2021/12/07 06:18:35;;;;;;;18.33;7.07;;;;;;;-2.19;79.32;99075.25;4972357;28;20063;-58
2021/12/07 06:21:03;;;;;;;12.70;6.15;;;;;;;-2.14;79.54;99080.75;4974268;28;20177;-58
2021/12/07 06:23:30;;;;;;;17.05;8.23;;;;;;;-2.12;79.19;99097.66;4972007;28;20057;-58
2021/12/07 06:25:59;;;;;;;16.30;8.30;;;;;;;-2.14;79.26;99083.47;4973465;28;20050;-56
2021/12/07 06:28:26;;;;;;;20.83;9.82;;;;;;;-2.13;79.13;99082.38;4972207;28;20154;-54
2021/12/07 06:30:53;;;;;;;14.65;7.53;;;;;;;-2.12;79.17;99086.75;4973803;28;20046;-62
2021/12/07 06:33:23;;;;;;;17.42;8.20;;;;;;;-2.11;79.04;99087.56;4971140;28;20074;-58
2021/12/07 06:35:56;;;;;;;14.88;6.28;;;;;;;-2.07;79.06;99084.06;4972434;28;20097;-58
2021/12/07 06:38:30;;;;;;;14.77;6.82;;;;;;;-2.04;79.23;99078.09;4971010;28;20518;-60
2021/12/07 06:40:59;;;;;;;13.93;6.45;;;;;;;-2.05;78.78;99087.34;4972712;28;20047;-58
2021/12/07 06:43:26;;;;;;;12.88;6.40;;;;;;;-2.03;78.94;99074.28;4971532;28;20058;-58
2021/12/07 06:45:54;;;;;;;16.30;6.75;;;;;;;-2.00;79.15;99067.47;4971583;28;20037;-56
2021/12/07 06:48:21;;;;;;;17.45;6.32;;;;;;;-1.96;78.85;99076.75;4970390;28;20043;-59
2021/12/07 06:50:49;;;;;;;13.07;5.78;;;;;;;-1.98;78.73;99055.22;4972070;28;20109;-53
2021/12/07 06:53:16;;;;;;;14.48;6.07;;;;;;;-1.94;79.10;99072.72;4972575;28;20133;-55
2021/12/07 06:55:43;;;;;;;11.38;5.35;;;;;;;-1.92;78.79;99056.91;4973336;28;20051;-59
2021/12/07 06:58:10;;;;;;;13.75;5.10;;;;;;;-1.87;78.94;99061.56;4955587;28;20050;-54
2021/12/07 07:00:38;;;;;;;12.25;6.10;;;;;;;-1.88;78.73;99059.94;4970443;28;20047;-57
2021/12/07 07:03:05;;;;;;;10.73;4.95;;;;;;;-1.91;78.66;99055.84;4969080;28;20065;-58
2021/12/07 07:05:32;;;;;;;9.05;4.68;;;;;;;-1.88;78.86;99044.41;4970978;28;20134;-56
2021/12/07 07:08:00;;;;;;;11.13;5.18;;;;;;;-1.88;78.74;99058.03;4972782;28;20054;-57
2021/12/07 07:10:27;;;;;;;8.35;3.95;;;;;;;-1.83;79.02;99059.97;4969236;28;20065;-56
2021/12/07 07:12:54;;;;;;;9.40;3.97;;;;;;;-1.82;78.57;99058.88;4974870;28;20141;-58
2021/12/07 07:15:21;;;;;;;10.50;3.60;;;;;;;-1.80;78.67;99073.06;4971042;28;20541;-57
2021/12/07 07:17:49;;;;;;;9.80;5.05;;;;;;;-1.79;78.59;99052.88;4973049;28;20078;-58
2021/12/07 07:20:16;;;;;;;10.13;4.25;;;;;;;-1.78;78.58;99062.69;4971115;28;20057;-58
2021/12/07 07:22:43;;;;;;;7.85;3.65;;;;;;;-1.77;78.61;99052.63;4972191;28;20042;-59
2021/12/07 07:25:11;;;;;;;6.68;3.67;;;;;;;-1.77;78.61;99058.91;4973015;28;20073;-58
2021/12/07 07:27:39;;;;;;;7.07;3.88;;;;;;;-1.72;78.67;99052.66;4972063;28;20536;-56
2021/12/07 07:30:09;;;;;;;9.35;4.47;;;;;;;-1.69;78.50;99054.84;4968448;28;20137;-57
2021/12/07 07:32:36;;;;;;;6.40;3.33;;;;;;;-1.65;78.57;99058.69;4972059;28;20133;-57
2021/12/07 07:35:05;;;;;;;6.43;3.72;;;;;;;-1.66;78.56;99035.22;4966775;28;20534;-57
2021/12/07 07:37:32;;;;;;;7.88;4.38;;;;;;;-1.66;78.62;99057.03;4971040;28;20133;-53
2021/12/07 07:39:59;;;;;;;14.55;6.95;;;;;;;-1.67;78.71;99047.22;4972349;28;20118;-61
2021/12/07 07:42:31;;;;;;;8.95;4.93;;;;;;;-1.67;78.79;99044.47;4972408;28;20157;-59
2021/12/07 07:44:58;;;;;;;6.90;3.88;;;;;;;-1.66;78.80;99040.69;4972807;28;20518;-58
2021/12/07 07:47:25;;;;;;;7.90;4.35;;;;;;;-1.66;78.85;99011.50;4970003;28;20101;-59
2021/12/07 07:49:52;;;;;;;7.20;3.75;;;;;;;-1.63;78.90;99023.78;4973939;28;20383;-57
2021/12/07 07:52:19;;;;;;;5.97;2.63;;;;;;;-1.61;78.70;99046.13;4968264;28;20046;-58
2021/12/07 07:54:46;;;;;;;9.32;4.22;;;;;;;-1.62;78.98;99033.59;4972475;28;20047;-59
2021/12/07 07:57:13;;;;;;;5.75;2.90;;;;;;;-1.65;78.79;99036.88;4953442;28;20106;-57
2021/12/07 07:59:40;;;;;;;5.70;2.88;;;;;;;-1.69;78.97;99041.22;4972647;28;20085;-56
2021/12/07 08:02:07;;;;;;;7.65;3.30;;;;;;;-1.67;79.17;99022.66;4969463;28;20093;-58
2021/12/07 08:04:34;;;;;;;5.90;3.72;;;;;;;-1.64;79.11;99027.59;4972470;28;20046;-58
2021/12/07 08:07:02;;;;;;;8.02;3.10;;;;;;;-1.60;78.82;99021.34;4969644;28;20277;-57
2021/12/07 08:09:29;;;;;;;11.75;3.20;;;;;;;-1.58;78.95;99023.78;4970011;28;20078;-55
2021/12/07 08:11:56;;;;;;;5.95;3.45;;;;;;;-1.52;78.81;99025.44;4970735;28;20058;-59
2021/12/07 08:14:23;;;;;;;5.70;2.97;;;;;;;-1.52;78.69;99020.00;4970819;28;20054;-60
2021/12/07 08:16:50;;;;;;;6.90;3.53;;;;;;;-1.54;78.67;98998.44;4973549;28;20050;-55
2021/12/07 08:19:17;;;;;;;9.88;3.30;;;;;;;-1.50;78.66;99007.75;4969943;28;20089;-58
2021/12/07 08:21:44;;;;;;;7.10;3.03;;;;;;;-1.50;78.72;99023.28;4971861;28;20054;-57
2021/12/07 08:24:11;;;;;;;7.85;3.60;;;;;;;-1.48;78.38;99011.00;4953596;28;20053;-57
2021/12/07 08:26:38;;;;;;;6.13;3.28;;;;;;;-1.47;78.54;99011.84;4971878;28;20411;-58
2021/12/07 08:29:05;;;;;;;5.82;2.47;;;;;;;-1.48;78.36;99015.66;4970007;28;20110;-57
2021/12/07 08:31:32;;;;;;;6.68;2.92;;;;;;;-1.50;78.52;99007.75;4970726;28;20133;-56
2021/12/07 08:34:00;;;;;;;4.90;2.50;;;;;;;-1.47;78.36;99009.94;4970086;28;20128;-57
2021/12/07 08:36:28;;;;;;;4.95;2.72;;;;;;;-1.45;78.57;98996.84;4971742;28;20134;-59
2021/12/07 08:38:56;;;;;;;4.85;2.58;;;;;;;-1.45;78.48;99012.41;4969510;28;20051;-57
2021/12/07 08:41:23;;;;;;;34.08;12.60;;;;;;;-1.38;78.45;98982.97;4972054;28;20405;-59
2021/12/07 08:43:51;;;;;;;51.45;15.82;;;;;;;-1.29;78.38;98987.63;4970328;28;20113;-58
2021/12/07 08:46:18;;;;;;;5.97;3.08;;;;;;;-1.24;78.10;98984.91;4971614;28;20491;-58
2021/12/07 08:48:45;;;;;;;7.40;3.58;;;;;;;-1.21;77.94;99005.38;4970473;28;20065;-55
2021/12/07 08:51:14;;;;;;;6.82;3.17;;;;;;;-1.17;78.35;98981.91;4971988;28;20422;-56
2021/12/07 08:54:18;;;;;;;6.22;3.13;;;;;;;-1.18;78.23;98980.28;4955738;28;20141;-58
2021/12/07 08:59:39;;;;;;;4.88;3.13;;;;;;;-1.22;78.11;98971.00;4969999;28;20059;-60
2021/12/07 09:02:07;;;;;;;6.32;3.60;;;;;;;-1.19;78.17;98974.00;4969752;28;20054;-57
2021/12/07 09:04:35;;;;;;;5.05;2.78;;;;;;;-1.14;77.93;98979.47;4972046;28;20105;-58
2021/12/07 09:07:04;;;;;;;5.82;3.13;;;;;;;-1.11;77.96;98978.09;4970920;28;20054;-58
2021/12/07 09:09:33;;;;;;;9.23;3.30;;;;;;;-1.05;77.68;98977.00;4969619;28;20073;-59
2021/12/07 09:12:01;;;;;;;9.40;4.28;;;;;;;-1.02;77.77;98969.09;4970493;28;20391;-58
2021/12/07 09:14:30;;;;;;;20.55;6.85;;;;;;;-1.03;77.82;98974.84;4970786;28;20051;-63
2021/12/07 09:16:58;;;;;;;6.38;3.65;;;;;;;-1.04;78.05;98963.09;4970981;28;20051;-59
2021/12/07 09:19:25;;;;;;;6.35;2.95;;;;;;;-1.00;78.03;98963.38;4968134;28;20047;-58
2021/12/07 09:21:52;;;;;;;4.57;2.45;;;;;;;-0.98;77.88;98955.75;4970020;28;20054;-55
2021/12/07 09:24:19;;;;;;;7.97;3.03;;;;;;;-1.00;78.10;98941.53;4967684;28;20466;-58
2021/12/07 09:26:47;;;;;;;8.82;3.50;;;;;;;-1.00;77.65;98947.00;4974243;28;20055;-59
2021/12/07 09:29:14;;;;;;;8.98;3.20;;;;;;;-0.98;77.84;98950.28;4972921;28;20151;-60
2021/12/07 09:31:42;;;;;;;4.88;2.60;;;;;;;-0.99;77.66;98954.91;4974857;28;20109;-57
2021/12/07 09:34:11;;;;;;;6.53;3.53;;;;;;;-1.00;77.89;98947.00;4972934;28;20079;-59
2021/12/07 09:36:40;;;;;;;5.40;3.13;;;;;;;-1.01;77.63;98948.09;4974028;28;20049;-58
2021/12/07 09:39:11;;;;;;;6.57;3.50;;;;;;;-1.02;77.74;98939.09;4972462;28;20387;-60
2021/12/07 09:41:38;;;;;;;5.80;2.92;;;;;;;-1.05;77.82;98944.25;4973939;28;20491;-60
2021/12/07 09:44:07;;;;;;;6.80;3.90;;;;;;;-1.04;77.76;98951.38;4972676;28;20050;-58
2021/12/07 09:46:35;;;;;;;5.80;3.20;;;;;;;-1.02;77.90;98946.44;4974111;28;20043;-58
2021/12/07 09:49:04;;;;;;;8.18;3.28;;;;;;;-1.01;77.92;98946.16;4973632;28;20051;-60
2021/12/07 09:51:31;;;;;;;7.78;3.60;;;;;;;-1.07;78.00;98941.00;4953599;28;20055;-58
2021/12/07 09:53:59;;;;;;;6.63;3.95;;;;;;;-1.05;77.96;98945.09;4974963;28;20371;-58
2021/12/07 09:56:27;;;;;;;28.05;10.50;;;;;;;-1.03;77.88;98947.53;4973988;28;20583;-59
2021/12/07 09:58:56;;;;;;;5.70;3.35;;;;;;;-1.03;77.84;98937.47;4973229;28;20542;-56
2021/12/07 10:01:24;;;;;;;7.72;3.95;;;;;;;-1.02;77.93;98935.53;4973010;28;20089;-59
2021/12/07 10:03:52;;;;;;;8.10;3.42;;;;;;;-1.02;77.83;98941.81;4975453;28;20046;-59
2021/12/07 10:06:20;;;;;;;5.60;2.95;;;;;;;-1.02;77.95;98943.72;4973724;28;20047;-59
2021/12/07 10:08:48;;;;;;;12.35;3.45;;;;;;;-1.01;77.62;98939.91;4974732;28;20053;-54
2021/12/07 10:11:16;;;;;;;8.20;4.03;;;;;;;-0.97;77.76;98933.63;4957818;28;20055;-61
2021/12/07 10:13:48;;;;;;;4.78;3.20;;;;;;;-0.95;77.39;98933.38;4973034;28;20072;-57
2021/12/07 10:16:17;;;;;;;6.13;3.78;;;;;;;-0.94;77.90;98926.81;4955833;28;20043;-58
2021/12/07 10:18:45;;;;;;;8.15;3.33;;;;;;;-0.94;77.72;98949.47;4974548;28;20506;-58
2021/12/07 10:21:27;;;;;;;8.73;3.78;;;;;;;-0.94;77.45;98913.16;4971239;28;20054;-58
2021/12/07 10:24:02;;;;;;;8.32;3.85;;;;;;;-0.94;77.68;98924.91;4973688;28;20489;-59
2021/12/07 10:26:33;;;;;;;7.43;3.47;;;;;;;-0.92;77.89;98930.88;4974572;28;20145;-63
2021/12/07 10:29:15;;;;;;;8.25;3.70;;;;;;;-0.89;77.64;98926.81;4974106;28;20065;-56
2021/12/07 10:31:52;;;;;;;12.15;4.25;;;;;;;-0.88;77.74;98922.97;4972563;28;20042;-56
2021/12/07 10:34:22;;;;;;;8.55;3.60;;;;;;;-0.86;77.72;98915.34;4971714;28;20086;-56
2021/12/07 10:36:55;;;;;;;9.38;4.35;;;;;;;-0.84;77.96;98921.31;4973523;28;20047;-58
2021/12/07 10:39:32;;;;;;;8.13;4.10;;;;;;;-0.83;77.58;98931.97;4955186;28;20059;-59
2021/12/07 10:42:10;;;;;;;6.85;3.13;;;;;;;-0.88;77.64;98920.25;4972553;28;20503;-60
2021/12/07 10:45:07;;;;;;;6.90;3.25;;;;;;;-0.88;77.91;98939.34;4975009;28;20133;-56
2021/12/07 10:47:35;;;;;;;8.23;4.32;;;;;;;-0.91;77.98;98945.38;4971408;28;20426;-60
2021/12/07 10:50:09;;;;;;;8.35;4.50;;;;;;;-0.89;77.92;98932.28;4972909;28;20148;-56
2021/12/07 10:52:42;;;;;;;7.13;4.13;;;;;;;-0.84;78.16;98940.44;4970002;28;20051;-60
2021/12/07 10:55:17;;;;;;;12.70;4.28;;;;;;;-0.82;77.98;98913.69;4973295;28;20073;-58
2021/12/07 10:57:50;;;;;;;8.75;4.55;;;;;;;-0.80;78.12;98914.25;4970598;28;20814;-60
2021/12/07 11:00:21;;;;;;;8.35;4.28;;;;;;;-0.85;77.99;98915.06;4973222;28;20457;-59
2021/12/07 11:02:59;;;;;;;12.77;3.53;;;;;;;-0.86;77.98;98923.53;4968622;28;20066;-58
2021/12/07 11:05:29;;;;;;;9.77;4.25;;;;;;;-0.84;78.25;98922.16;4973490;28;20046;-58
2021/12/07 11:07:58;;;;;;;7.10;3.65;;;;;;;-0.84;78.43;98918.59;4972851;28;20057;-58
2021/12/07 11:10:32;;;;;;;7.88;4.22;;;;;;;-0.82;78.18;98924.63;4970920;28;20043;-59
2021/12/07 11:13:17;;;;;;;7.07;3.80;;;;;;;-0.86;78.23;98909.88;4971148;28;20061;-58
2021/12/07 11:15:55;;;;;;;6.97;3.70;;;;;;;-0.87;78.32;98932.78;4972152;28;20150;-59
2021/12/07 11:18:31;;;;;;;5.93;3.78;;;;;;;-0.85;78.29;98915.06;4974495;28;20053;-58
2021/12/07 11:21:26;;;;;;;7.63;3.58;;;;;;;-0.83;78.21;98925.72;4971094;28;20105;-58
2021/12/07 11:23:57;;;;;;;7.45;4.28;;;;;;;-0.83;78.28;98925.72;4962190;28;20058;-61
2021/12/07 11:31:45;;;;;;;12.13;4.20;;;;;;;-0.80;78.12;98914.25;4971421;28;20101;-58
2021/12/07 11:34:22;;;;;;;10.20;4.90;;;;;;;-0.78;78.35;98906.56;4971011;28;20046;-60
2021/12/07 11:36:53;;;;;;;10.20;4.78;;;;;;;-0.78;78.53;98909.31;4968487;28;20051;-58
2021/12/07 11:39:31;;;;;;;11.48;4.32;;;;;;;-0.77;78.46;98913.69;4971022;28;20553;-55
2021/12/07 11:42:01;;;;;;;10.93;4.88;;;;;;;-0.78;78.76;98901.94;4971842;28;20178;-59
2021/12/07 11:44:30;;;;;;;9.48;4.15;;;;;;;-0.78;78.69;98903.84;4969645;28;20137;-57
2021/12/07 11:46:59;;;;;;;7.95;4.22;;;;;;;-0.77;78.68;98900.84;4973046;28;20042;-59
2021/12/07 11:49:29;;;;;;;9.40;4.88;;;;;;;-0.73;78.60;98921.06;4969499;28;20053;-58
2021/12/07 11:52:00;;;;;;;8.10;4.05;;;;;;;-0.72;78.71;98910.94;4971828;28;20118;-60
2021/12/07 11:54:38;;;;;;;12.43;5.20;;;;;;;-0.70;78.71;98909.59;4971796;28;20050;-58
2021/12/07 11:57:07;;;;;;;8.90;4.22;;;;;;;-0.69;78.96;98918.59;4971796;28;20426;-58
2021/12/07 11:59:34;;;;;;;9.18;4.72;;;;;;;-0.66;78.63;98926.22;4969828;28;20090;-57
2021/12/07 12:02:02;;;;;;;9.60;4.18;;;;;;;-0.67;78.77;98916.41;4972400;28;20069;-57
2021/12/07 12:04:30;;;;;;;8.02;4.47;;;;;;;-0.65;78.74;98922.41;4969944;28;20569;-56
2021/12/07 12:06:58;;;;;;;9.93;4.88;;;;;;;-0.65;78.89;98923.22;4973342;28;20085;-57
2021/12/07 12:09:26;;;;;;;7.63;5.15;;;;;;;-0.62;79.05;98932.78;4970595;28;20051;-58
2021/12/07 12:11:59;;;;;;;10.48;4.85;;;;;;;-0.62;78.86;98916.41;4968118;28;20089;-61
2021/12/07 12:14:42;;;;;;;10.10;4.88;;;;;;;-0.62;78.73;98932.78;4972760;28;20082;-59
2021/12/07 12:17:21;;;;;;;9.13;4.75;;;;;;;-0.61;78.76;98927.06;4970487;28;20553;-58
2021/12/07 12:20:26;;;;;;;8.07;3.95;;;;;;;-0.62;78.73;98932.78;4968892;28;20070;-59
2021/12/07 12:23:11;;;;;;;7.63;4.28;;;;;;;-0.61;78.82;98935.25;4969463;28;20078;-58
2021/12/07 12:25:38;;;;;;;8.07;4.28;;;;;;;-0.63;79.00;98925.66;4969924;28;20046;-56
2021/12/07 12:28:06;;;;;;;7.45;4.30;;;;;;;-0.61;79.12;98937.16;4970259;28;20076;-61
2021/12/07 12:30:37;;;;;;;13.73;5.00;;;;;;;-0.59;79.09;98938.50;4971693;28;20050;-61
2021/12/07 12:33:10;;;;;;;16.20;4.82;;;;;;;-0.60;79.17;98930.59;4968694;28;20660;-56
2021/12/07 12:35:42;;;;;;;8.60;4.07;;;;;;;-0.58;78.92;98955.72;4954603;28;20129;-59
2021/12/07 12:38:18;;;;;;;8.57;4.25;;;;;;;-0.56;78.85;98948.06;4969244;28;20047;-61
2021/12/07 12:41:08;;;;;;;8.10;4.32;;;;;;;-0.55;79.04;98952.44;4955485;28;20057;-60
2021/12/07 12:43:52;;;;;;;6.65;3.58;;;;;;;-0.57;79.20;98951.88;4971714;28;20506;-60
2021/12/07 12:46:28;;;;;;;8.30;4.18;;;;;;;-0.57;78.94;98957.34;4969403;28;20043;-60
2021/12/07 12:49:04;;;;;;;8.27;3.53;;;;;;;-0.56;79.21;98945.34;4971707;28;20395;-60
2021/12/07 12:51:49;;;;;;;9.27;4.68;;;;;;;-0.55;78.89;98944.25;4969681;28;20475;-61
2021/12/07 12:54:43;;;;;;;8.13;4.47;;;;;;;-0.55;79.23;98938.78;4969585;28;20428;-61
2021/12/07 12:57:16;;;;;;;14.82;4.50;;;;;;;-0.55;79.42;98936.03;4968407;28;20074;-58
2021/12/07 12:59:47;;;;;;;10.50;4.70;;;;;;;-0.55;79.14;98931.41;4970142;28;20058;-59
2021/12/07 13:02:14;;;;;;;6.88;4.07;;;;;;;-0.54;79.22;98934.94;4969739;28;20687;-58
2021/12/07 13:04:42;;;;;;;9.90;4.80;;;;;;;-0.51;79.50;98929.75;4968445;28;20458;-59
2021/12/07 13:07:25;;;;;;;7.40;3.95;;;;;;;-0.48;79.53;98933.84;4969907;28;20049;-59
2021/12/07 13:10:02;;;;;;;11.88;4.65;;;;;;;-0.49;79.65;98934.94;4968949;28;20475;-60
2021/12/07 13:12:37;;;;;;;12.00;5.20;;;;;;;-0.48;79.61;98925.66;4970171;28;20043;-60
2021/12/07 13:15:12;;;;;;;7.97;4.32;;;;;;;-0.48;79.52;98922.91;4970463;28;20141;-60
2021/12/07 13:17:41;;;;;;;10.45;4.80;;;;;;;-0.49;79.35;98933.03;4970750;28;20049;-60
2021/12/07 13:20:31;;;;;;;14.10;5.43;;;;;;;-0.48;79.89;98928.38;4968593;28;20070;-60
2021/12/07 13:23:10;;;;;;;10.65;5.10;;;;;;;-0.48;79.83;98923.75;4968815;28;20049;-60